createdAt,value
2022-07-31T00:01:03.251Z,3.50
2022-07-31T00:03:14.071Z,3.25
2022-07-31T00:05:22.362Z,3.08
2022-07-31T00:07:32.245Z,2.90
2022-07-31T00:09:53.052Z,3.55
2022-07-31T00:11:56.100Z,2.58
2022-07-31T00:13:58.740Z,3.78
2022-07-31T00:16:00.407Z,3.55
2022-07-31T00:18:02.042Z,3.20
2022-07-31T00:20:04.079Z,3.00
2022-07-31T00:22:05.580Z,2.67
2022-07-31T00:24:07.059Z,3.08
2022-07-31T00:26:08.716Z,3.13
2022-07-31T00:28:10.194Z,2.55
2022-07-31T00:30:15.639Z,3.10
2022-07-31T00:32:17.163Z,3.60
2022-07-31T00:34:18.789Z,2.85
2022-07-31T00:36:20.672Z,3.05
2022-07-31T00:38:31.542Z,2.63
2022-07-31T00:40:33.395Z,3.13
2022-07-31T00:42:35.210Z,3.10
2022-07-31T00:44:36.704Z,2.95
2022-07-31T00:46:40.929Z,2.83
2022-07-31T00:48:43.567Z,3.63
2022-07-31T00:50:45.563Z,2.60
2022-07-31T00:52:47.062Z,3.40
2022-07-31T00:54:48.866Z,2.95
2022-07-31T00:56:51.827Z,2.92
2022-07-31T00:58:55.186Z,2.50
2022-07-31T01:00:56.771Z,3.42
2022-07-31T01:02:58.405Z,3.60
2022-07-31T01:04:59.874Z,3.03
2022-07-31T01:07:01.783Z,3.50
2022-07-31T01:09:03.568Z,3.63
2022-07-31T01:11:10.162Z,2.90
2022-07-31T01:13:22.006Z,3.92
2022-07-31T01:15:25.298Z,3.40
2022-07-31T01:17:28.067Z,3.08
2022-07-31T01:19:42.834Z,3.40
2022-07-31T01:22:00.243Z,3.55
2022-07-31T01:24:09.655Z,2.97
2022-07-31T01:26:19.424Z,3.20
2022-07-31T01:28:30.891Z,3.35
2022-07-31T01:30:35.365Z,2.95
2022-07-31T01:32:42.951Z,3.10
2022-07-31T01:34:48.443Z,3.10
2022-07-31T01:36:55.696Z,3.17
2022-07-31T01:38:57.458Z,3.50
2022-07-31T01:41:01.007Z,3.83
2022-07-31T01:43:05.443Z,3.67
2022-07-31T01:45:08.227Z,3.78
2022-07-31T01:47:16.791Z,3.95
2022-07-31T01:49:19.172Z,3.38
2022-07-31T01:51:21.245Z,3.42
2022-07-31T01:53:23.898Z,3.00
2022-07-31T01:55:26.134Z,3.88
2022-07-31T01:57:28.453Z,3.95
2022-07-31T01:59:32.911Z,3.50
2022-07-31T02:01:38.098Z,3.72
2022-07-31T02:03:44.530Z,3.17
2022-07-31T02:05:47.654Z,3.55
2022-07-31T02:07:49.655Z,3.78
2022-07-31T02:09:58.719Z,3.60
2022-07-31T02:12:00.949Z,4.05
2022-07-31T02:14:02.979Z,2.95
2022-07-31T02:16:05.745Z,3.38
2022-07-31T02:18:07.395Z,3.58
2022-07-31T02:20:10.576Z,3.40
2022-07-31T02:22:12.371Z,3.40
2022-07-31T02:24:13.847Z,2.60
2022-07-31T02:26:16.193Z,3.28
2022-07-31T02:28:20.500Z,3.38
2022-07-31T02:30:22.853Z,2.60
2022-07-31T02:32:25.245Z,4.00
2022-07-31T02:34:30.151Z,2.85
2022-07-31T02:36:33.185Z,3.72
2022-07-31T02:38:35.274Z,2.80
2022-07-31T02:40:37.102Z,3.40
2022-07-31T02:42:40.155Z,3.13
2022-07-31T02:44:42.163Z,3.00
2022-07-31T02:46:44.780Z,3.17
2022-07-31T02:48:49.608Z,2.55
2022-07-31T02:50:51.393Z,2.50
2022-07-31T02:52:54.504Z,2.55
2022-07-31T02:54:58.884Z,2.75
2022-07-31T02:57:03.310Z,2.90
2022-07-31T02:59:06.812Z,2.33
2022-07-31T03:01:10.453Z,3.65
2022-07-31T03:03:13.887Z,3.10
2022-07-31T03:05:17.380Z,2.55
2022-07-31T03:07:20.517Z,2.50
2022-07-31T03:09:23.758Z,2.83
2022-07-31T03:11:27.897Z,3.17
2022-07-31T03:15:32.774Z,2.83
2022-07-31T03:17:38.433Z,2.75
2022-07-31T03:19:43.077Z,2.83
2022-07-31T03:21:45.085Z,3.03
2022-07-31T03:23:46.980Z,2.53
2022-07-31T03:25:49.031Z,4.00
2022-07-31T03:27:55.644Z,2.83
2022-07-31T03:29:58.386Z,3.13
2022-07-31T03:32:00.924Z,2.60
2022-07-31T03:34:02.614Z,2.45
2022-07-31T03:36:04.523Z,2.65
2022-07-31T03:38:39.235Z,3.42
2022-07-31T03:40:27.767Z,2.50
2022-07-31T03:42:29.609Z,2.80
2022-07-31T03:44:32.647Z,2.80
2022-07-31T03:46:34.535Z,3.00
2022-07-31T03:48:36.352Z,3.25
2022-07-31T03:50:38.983Z,2.40
2022-07-31T03:52:40.542Z,2.65
2022-07-31T03:54:42.838Z,3.50
2022-07-31T03:56:47.423Z,2.60
2022-07-31T03:58:52.524Z,3.20
2022-07-31T04:00:54.342Z,3.00
2022-07-31T04:02:57.669Z,2.90
2022-07-31T04:04:59.550Z,3.05
2022-07-31T04:07:01.076Z,2.45
2022-07-31T04:09:13.723Z,4.35
2022-07-31T04:11:20.597Z,2.88
2022-07-31T04:13:22.125Z,2.67
2022-07-31T04:15:23.760Z,3.08
2022-07-31T04:17:25.264Z,3.40
2022-07-31T04:19:26.738Z,3.15
2022-07-31T04:21:28.195Z,3.05
2022-07-31T04:23:32.661Z,3.15
2022-07-31T04:25:34.352Z,2.80
2022-07-31T04:27:36.552Z,3.38
2022-07-31T04:29:50.055Z,4.07
2022-07-31T04:31:51.770Z,3.40
2022-07-31T04:33:56.513Z,3.70
2022-07-31T04:35:58.589Z,3.75
2022-07-31T04:38:00.121Z,3.22
2022-07-31T04:40:02.055Z,3.28
2022-07-31T04:42:03.846Z,3.65
2022-07-31T04:44:05.593Z,3.53
2022-07-31T04:46:17.690Z,4.00
2022-07-31T04:48:19.452Z,3.47
2022-07-31T04:50:20.998Z,2.95
2022-07-31T04:52:22.588Z,3.78
2022-07-31T04:54:24.279Z,4.50
2022-07-31T04:56:37.369Z,3.60
2022-07-31T04:58:38.861Z,4.30
2022-07-31T05:00:40.475Z,4.15
2022-07-31T05:02:42.477Z,3.83
2022-07-31T05:04:44.009Z,3.83
2022-07-31T05:06:47.024Z,4.63
2022-07-31T05:08:48.470Z,4.07
2022-07-31T05:11:08.746Z,4.38
2022-07-31T05:13:10.428Z,4.53
2022-07-31T05:15:12.246Z,5.13
2022-07-31T05:17:13.876Z,4.40
2022-07-31T05:19:15.502Z,4.40
2022-07-31T05:21:17.271Z,4.82
2022-07-31T05:23:18.741Z,4.32
2022-07-31T05:25:20.328Z,3.70
2022-07-31T05:27:21.911Z,4.50
2022-07-31T05:29:23.446Z,4.07
2022-07-31T05:31:24.876Z,3.95
2022-07-31T05:33:26.827Z,3.45
2022-07-31T05:35:28.315Z,3.72
2022-07-31T05:37:29.956Z,3.72
2022-07-31T05:39:31.663Z,3.40
2022-07-31T05:41:35.730Z,4.57
2022-07-31T05:43:37.735Z,4.13
2022-07-31T05:45:39.662Z,4.00
2022-07-31T05:47:41.273Z,4.63
2022-07-31T05:49:42.728Z,5.35
2022-07-31T05:51:44.652Z,3.95
2022-07-31T05:53:46.831Z,3.65
2022-07-31T05:55:49.414Z,4.20
2022-07-31T05:57:52.399Z,4.03
2022-07-31T06:00:03.980Z,3.63
2022-07-31T06:02:14.803Z,4.45
2022-07-31T06:04:24.140Z,4.50
2022-07-31T06:06:34.109Z,3.58
2022-07-31T06:08:44.214Z,4.03
2022-07-31T06:10:54.653Z,4.55
2022-07-31T06:13:03.555Z,4.32
2022-07-31T06:15:14.271Z,4.03
2022-07-31T06:17:23.500Z,3.95
2022-07-31T06:19:50.177Z,4.03
2022-07-31T06:21:53.873Z,3.83
2022-07-31T06:23:55.681Z,3.90
2022-07-31T06:25:57.728Z,3.40
2022-07-31T06:28:00.870Z,3.60
2022-07-31T06:30:06.440Z,4.22
2022-07-31T06:32:08.855Z,3.92
2022-07-31T06:34:10.350Z,3.53
2022-07-31T06:36:12.110Z,3.25
2022-07-31T06:38:13.639Z,3.78
2022-07-31T06:40:15.768Z,4.22
2022-07-31T06:42:19.447Z,3.45
2022-07-31T06:44:21.321Z,3.63
2022-07-31T06:46:22.783Z,4.10
2022-07-31T06:48:24.302Z,4.07
2022-07-31T06:50:27.947Z,3.13
2022-07-31T06:52:29.547Z,3.50
2022-07-31T06:54:31.094Z,3.72
2022-07-31T06:56:33.056Z,3.28
2022-07-31T06:58:34.572Z,3.50
2022-07-31T07:00:36.037Z,3.13
2022-07-31T07:02:37.669Z,3.08
2022-07-31T07:05:05.163Z,3.17
2022-07-31T07:07:00.681Z,3.00
2022-07-31T07:09:02.251Z,3.00
2022-07-31T07:11:03.727Z,3.28
2022-07-31T07:13:05.255Z,2.97
2022-07-31T07:15:07.707Z,2.63
2022-07-31T07:17:09.268Z,3.33
2022-07-31T07:19:10.803Z,2.70
2022-07-31T07:21:12.398Z,2.75
2022-07-31T07:23:13.946Z,2.50
2022-07-31T07:25:15.409Z,2.78
2022-07-31T07:27:17.426Z,2.55
2022-07-31T07:29:18.976Z,2.28
2022-07-31T07:31:20.435Z,2.50
2022-07-31T07:33:41.115Z,2.42
2022-07-31T07:35:44.114Z,2.38
2022-07-31T07:37:45.869Z,2.25
2022-07-31T07:39:47.470Z,2.20
2022-07-31T07:41:48.938Z,1.95
2022-07-31T07:43:52.342Z,2.20
2022-07-31T07:45:54.611Z,2.58
2022-07-31T07:48:06.794Z,1.83
2022-07-31T07:50:09.458Z,1.90
2022-07-31T07:52:11.414Z,2.30
2022-07-31T07:54:14.969Z,3.15
2022-07-31T07:56:16.767Z,2.28
2022-07-31T07:58:18.310Z,2.03
2022-07-31T08:00:20.194Z,2.28
2022-07-31T08:02:21.822Z,2.30
2022-07-31T08:04:23.556Z,2.15
2022-07-31T08:06:25.030Z,2.55
2022-07-31T08:08:26.536Z,2.63
2022-07-31T08:10:28.320Z,2.05
2022-07-31T08:12:29.879Z,2.08
2022-07-31T08:14:31.726Z,2.10
2022-07-31T08:16:33.695Z,2.20
2022-07-31T08:18:35.199Z,2.30
2022-07-31T08:20:37.577Z,1.90
2022-07-31T08:22:39.020Z,2.00
2022-07-31T08:24:40.600Z,2.05
2022-07-31T08:27:01.143Z,2.00
2022-07-31T08:29:05.035Z,2.75
2022-07-31T08:31:09.369Z,1.88
2022-07-31T08:33:10.959Z,1.98
2022-07-31T08:35:12.508Z,1.65
2022-07-31T08:37:52.242Z,2.60
2022-07-31T08:39:36.323Z,1.98
2022-07-31T08:41:39.155Z,2.30
2022-07-31T08:44:02.836Z,2.50
2022-07-31T08:46:03.234Z,1.67
2022-07-31T08:48:07.609Z,2.88
2022-07-31T08:50:10.354Z,2.30
2022-07-31T08:52:22.333Z,2.25
2022-07-31T08:54:26.211Z,2.30
2022-07-31T08:58:29.406Z,2.42
2022-07-31T09:00:34.430Z,2.25
2022-07-31T09:02:39.798Z,2.15
2022-07-31T09:04:52.284Z,2.00
2022-07-31T09:07:05.035Z,2.20
2022-07-31T09:09:15.933Z,2.22
2022-07-31T09:11:23.491Z,1.92
2022-07-31T09:13:32.301Z,1.95
2022-07-31T09:15:41.825Z,1.88
2022-07-31T09:17:53.760Z,1.73
2022-07-31T09:20:03.441Z,1.52
2022-07-31T09:22:13.809Z,1.65
2022-07-31T09:24:31.397Z,1.98
2022-07-31T09:26:48.128Z,2.72
2022-07-31T09:28:52.496Z,1.45
2022-07-31T09:30:56.496Z,1.58
2022-07-31T09:33:17.722Z,1.73
2022-07-31T09:35:19.501Z,1.52
2022-07-31T09:37:21.813Z,1.40
2022-07-31T09:39:27.876Z,1.10
2022-07-31T09:41:59.306Z,1.60
2022-07-31T09:44:00.450Z,1.75
2022-07-31T09:46:02.717Z,1.60
2022-07-31T09:48:05.526Z,1.27
2022-07-31T09:52:17.774Z,1.52
2022-07-31T09:54:23.374Z,1.23
2022-07-31T09:56:34.556Z,1.30
2022-07-31T09:58:36.065Z,1.17
2022-07-31T10:00:37.726Z,1.00
2022-07-31T10:02:39.597Z,0.90
2022-07-31T10:04:41.914Z,0.90
2022-07-31T10:06:45.855Z,1.13
2022-07-31T10:08:48.642Z,1.25
2022-07-31T10:10:50.523Z,0.90
2022-07-31T10:12:54.102Z,0.90
2022-07-31T10:14:56.561Z,1.25
2022-07-31T10:16:59.954Z,0.80
2022-07-31T10:19:03.229Z,0.80
2022-07-31T10:21:05.826Z,0.77
2022-07-31T10:23:14.307Z,1.15
2022-07-31T10:25:25.880Z,0.50
2022-07-31T10:27:28.340Z,0.60
2022-07-31T10:29:32.576Z,0.90
2022-07-31T10:31:35.156Z,0.77
2022-07-31T10:33:44.954Z,0.70
2022-07-31T10:36:02.036Z,1.08
2022-07-31T10:38:11.581Z,0.60
2022-07-31T10:40:18.966Z,0.70
2022-07-31T10:42:35.626Z,0.50
2022-07-31T10:44:41.478Z,0.82
2022-07-31T10:46:43.039Z,0.70
2022-07-31T10:48:51.401Z,0.82
2022-07-31T10:51:07.259Z,0.60
2022-07-31T10:53:12.906Z,0.60
2022-07-31T10:55:18.466Z,1.70
2022-07-31T10:57:23.577Z,0.77
2022-07-31T10:59:29.234Z,0.73
2022-07-31T11:01:30.853Z,0.68
2022-07-31T11:03:44.241Z,0.73
2022-07-31T11:06:02.601Z,1.10
2022-07-31T11:08:05.879Z,0.77
2022-07-31T11:10:10.189Z,0.45
2022-07-31T11:12:18.446Z,0.68
2022-07-31T11:14:30.975Z,0.77
2022-07-31T11:16:32.644Z,1.15
2022-07-31T11:18:34.710Z,0.77
2022-07-31T11:20:36.409Z,2.35
2022-07-31T11:22:37.905Z,0.80
2022-07-31T11:24:39.810Z,0.88
2022-07-31T11:26:51.634Z,0.80
2022-07-31T11:28:53.163Z,1.30
2022-07-31T11:30:55.967Z,0.98
2022-07-31T11:32:57.630Z,1.35
2022-07-31T11:34:59.442Z,1.27
2022-07-31T11:37:00.962Z,1.30
2022-07-31T11:39:04.313Z,1.10
2022-07-31T11:41:07.492Z,1.10
2022-07-31T11:45:27.372Z,1.02
2022-07-31T11:48:11.385Z,1.00
2022-07-31T11:50:03.995Z,0.63
2022-07-31T11:52:09.794Z,1.08
2022-07-31T11:54:31.670Z,0.70
2022-07-31T11:56:33.404Z,1.02
2022-07-31T11:58:35.171Z,0.60
2022-07-31T12:00:36.822Z,0.85
2022-07-31T12:02:41.989Z,0.70
2022-07-31T12:04:43.592Z,0.90
2022-07-31T12:06:53.261Z,0.63
2022-07-31T12:10:00.924Z,0.85
2022-07-31T12:11:45.037Z,0.68
2022-07-31T12:13:53.512Z,0.85
2022-07-31T12:16:04.562Z,0.75
2022-07-31T12:18:12.592Z,0.50
2022-07-31T12:20:34.260Z,0.60
2022-07-31T12:22:42.686Z,0.57
2022-07-31T12:24:51.127Z,0.40
2022-07-31T12:27:04.737Z,0.60
2022-07-31T12:29:14.133Z,0.50
2022-07-31T12:31:22.557Z,0.40
2022-07-31T12:33:30.187Z,0.70
2022-07-31T12:35:55.693Z,0.50
2022-07-31T12:37:58.606Z,0.50
2022-07-31T12:40:01.665Z,1.65
2022-07-31T12:42:04.000Z,0.75
2022-07-31T12:44:22.347Z,1.10
2022-07-31T12:46:36.055Z,0.40
2022-07-31T12:48:41.039Z,0.43
2022-07-31T12:50:43.902Z,0.60
2022-07-31T12:52:45.424Z,0.88
2022-07-31T12:54:46.975Z,0.70
2022-07-31T12:56:48.425Z,0.50
2022-07-31T12:58:50.250Z,0.55
2022-07-31T13:00:52.000Z,0.40
2022-07-31T13:02:54.535Z,0.35
2022-07-31T13:04:56.050Z,0.30
2022-07-31T13:06:57.920Z,0.30
2022-07-31T13:08:59.439Z,0.20
2022-07-31T13:11:01.035Z,0.30
2022-07-31T13:13:02.535Z,0.20
2022-07-31T13:15:04.205Z,0.30
2022-07-31T13:17:06.229Z,0.40
2022-07-31T13:19:08.230Z,0.60
2022-07-31T13:21:09.846Z,0.50
2022-07-31T13:23:11.300Z,0.40
2022-07-31T13:25:12.947Z,0.55
2022-07-31T13:27:14.531Z,0.50
2022-07-31T13:29:16.593Z,0.30
2022-07-31T13:31:18.159Z,0.20
2022-07-31T13:33:20.149Z,0.10
2022-07-31T13:35:28.628Z,0.20
2022-07-31T13:37:30.755Z,0.10
2022-07-31T13:39:32.210Z,0.10
2022-07-31T13:41:35.613Z,0.20
2022-07-31T13:45:38.856Z,0.10
2022-07-31T13:47:50.546Z,0.17
2022-07-31T13:49:53.638Z,0.30
2022-07-31T13:51:55.903Z,0.43
2022-07-31T13:53:57.448Z,0.43
2022-07-31T13:55:59.358Z,0.50
2022-07-31T13:58:01.695Z,0.30
2022-07-31T14:00:04.154Z,0.30
2022-07-31T14:02:05.820Z,0.20
2022-07-31T14:04:07.347Z,0.30
2022-07-31T14:06:09.286Z,0.10
2022-07-31T14:08:32.710Z,0.15
2022-07-31T14:10:32.351Z,0.10
2022-07-31T14:12:34.630Z,0.22
2022-07-31T14:14:36.498Z,0.25
2022-07-31T14:16:38.114Z,0.73
2022-07-31T14:18:39.619Z,0.20
2022-07-31T14:20:41.224Z,0.10
2022-07-31T14:22:42.779Z,0.10
2022-07-31T14:24:50.657Z,0.15
2022-07-31T14:26:53.227Z,0.22
2022-07-31T14:28:54.820Z,0.43
2022-07-31T14:30:56.581Z,0.20
2022-07-31T14:32:58.218Z,0.10
2022-07-31T14:35:01.484Z,0.20
2022-07-31T14:37:05.246Z,0.05
2022-07-31T14:39:06.944Z,0.20
2022-07-31T14:41:08.694Z,0.25
2022-07-31T14:43:10.397Z,0.10
2022-07-31T14:45:12.021Z,0.00
2022-07-31T14:47:13.538Z,0.10
2022-07-31T14:49:15.071Z,0.17
2022-07-31T14:51:17.235Z,0.05
2022-07-31T14:53:18.770Z,0.10
2022-07-31T14:55:20.967Z,0.00
2022-07-31T14:57:22.713Z,0.10
2022-07-31T14:59:24.184Z,0.15
2022-07-31T15:01:26.785Z,0.10
2022-07-31T15:03:32.576Z,0.15
2022-07-31T15:06:38.648Z,0.10
2022-07-31T15:07:55.778Z,0.10
2022-07-31T15:09:57.375Z,0.10
2022-07-31T15:12:01.307Z,0.10
2022-07-31T15:14:03.780Z,0.10
2022-07-31T15:16:07.978Z,0.10
2022-07-31T15:18:16.997Z,0.10
2022-07-31T15:20:32.542Z,0.22
2022-07-31T15:22:43.177Z,0.08
2022-07-31T15:24:53.429Z,0.00
2022-07-31T15:27:03.555Z,0.00
2022-07-31T15:29:13.204Z,0.10
2022-07-31T15:31:23.931Z,0.20
2022-07-31T15:33:32.039Z,0.00
2022-07-31T15:35:42.663Z,0.10
2022-07-31T15:37:54.197Z,0.10
2022-07-31T15:40:02.128Z,0.13
2022-07-31T15:42:05.084Z,0.10
2022-07-31T15:44:06.578Z,0.17
2022-07-31T15:46:08.938Z,0.20
2022-07-31T15:48:10.707Z,0.20
2022-07-31T15:50:13.547Z,0.10
2022-07-31T15:52:18.984Z,0.22
2022-07-31T15:54:22.047Z,0.22
2022-07-31T15:56:23.661Z,0.20
2022-07-31T15:58:25.363Z,0.20
2022-07-31T16:00:30.234Z,0.22
2022-07-31T16:02:31.751Z,0.10
2022-07-31T16:04:33.272Z,0.38
2022-07-31T16:06:35.650Z,0.40
2022-07-31T16:08:38.065Z,0.20
2022-07-31T16:10:39.832Z,0.10
2022-07-31T16:12:42.894Z,0.28
2022-07-31T16:14:44.358Z,0.15
2022-07-31T16:16:46.070Z,0.17
2022-07-31T16:18:47.706Z,0.20
2022-07-31T16:20:49.670Z,0.20
2022-07-31T16:22:54.452Z,0.40
2022-07-31T16:24:55.991Z,0.10
2022-07-31T16:26:57.455Z,0.30
2022-07-31T16:28:59.986Z,0.30
2022-07-31T16:31:01.616Z,0.35
2022-07-31T16:33:03.238Z,0.30
2022-07-31T16:35:06.281Z,0.50
2022-07-31T16:37:08.082Z,0.57
2022-07-31T16:39:20.414Z,0.50
2022-07-31T16:41:22.179Z,0.50
2022-07-31T16:43:50.153Z,0.50
2022-07-31T16:45:45.248Z,0.47
2022-07-31T16:47:51.057Z,0.35
2022-07-31T16:49:53.626Z,0.35
2022-07-31T16:51:55.154Z,0.43
2022-07-31T16:54:13.221Z,0.50
2022-07-31T16:56:17.799Z,0.35
2022-07-31T16:58:19.382Z,0.70
2022-07-31T17:00:26.325Z,0.60
2022-07-31T17:02:27.763Z,0.40
2022-07-31T17:04:29.249Z,0.45
2022-07-31T17:06:35.919Z,0.60
2022-07-31T17:08:38.559Z,0.50
2022-07-31T17:10:40.110Z,0.50
2022-07-31T17:12:41.659Z,0.60
2022-07-31T17:14:43.960Z,0.82
2022-07-31T17:16:48.054Z,0.80
2022-07-31T17:18:52.697Z,0.60
2022-07-31T17:20:57.020Z,0.57
2022-07-31T17:22:59.310Z,0.30
2022-07-31T17:25:06.439Z,0.30
2022-07-31T17:27:09.064Z,0.65
2022-07-31T17:29:11.547Z,0.30
2022-07-31T17:31:13.024Z,0.38
2022-07-31T17:33:14.588Z,0.35
2022-07-31T17:35:16.044Z,0.63
2022-07-31T17:37:18.108Z,0.50
2022-07-31T17:39:19.562Z,0.60
2022-07-31T17:41:25.012Z,0.25
2022-07-31T17:43:27.930Z,0.50
2022-07-31T17:45:59.718Z,0.40
2022-07-31T17:48:08.142Z,0.22
2022-07-31T17:50:09.822Z,0.30
2022-07-31T17:52:11.787Z,0.47
2022-07-31T17:54:13.727Z,0.40
2022-07-31T17:56:15.832Z,0.50
2022-07-31T17:58:18.167Z,0.40
2022-07-31T18:00:19.843Z,0.50
2022-07-31T18:02:21.481Z,0.30
2022-07-31T18:04:22.999Z,0.60
2022-07-31T18:06:24.604Z,0.63
2022-07-31T18:08:27.312Z,0.40
2022-07-31T18:10:53.026Z,0.40
2022-07-31T18:12:57.815Z,0.50
2022-07-31T18:14:59.700Z,0.70
2022-07-31T18:17:01.343Z,0.50
2022-07-31T18:19:03.231Z,0.50
2022-07-31T18:21:06.254Z,0.60
2022-07-31T18:23:12.561Z,0.43
2022-07-31T18:25:22.579Z,0.43
2022-07-31T18:27:34.778Z,0.68
2022-07-31T18:29:43.670Z,0.50
2022-07-31T18:32:05.094Z,0.50
2022-07-31T18:34:15.523Z,0.45
2022-07-31T18:36:24.794Z,0.50
2022-07-31T18:38:33.727Z,0.57
2022-07-31T18:40:37.935Z,0.43
2022-07-31T18:42:44.925Z,0.88
2022-07-31T18:44:54.610Z,0.90
2022-07-31T18:46:57.512Z,0.70
2022-07-31T18:48:59.512Z,0.77
2022-07-31T18:51:05.098Z,0.73
2022-07-31T18:53:07.091Z,0.73
2022-07-31T18:55:09.695Z,0.77
2022-07-31T18:57:11.307Z,0.50
2022-07-31T18:59:12.776Z,0.60
2022-07-31T19:01:14.837Z,0.50
2022-07-31T19:03:18.453Z,0.35
2022-07-31T19:05:21.841Z,0.50
2022-07-31T19:07:23.646Z,0.70
2022-07-31T19:09:25.450Z,0.60
2022-07-31T19:11:28.816Z,0.45
2022-07-31T19:13:30.437Z,0.60
2022-07-31T19:15:31.931Z,0.55
2022-07-31T19:17:43.934Z,0.60
2022-07-31T19:19:54.270Z,0.57
2022-07-31T19:21:57.199Z,0.70
2022-07-31T19:23:58.722Z,0.75
2022-07-31T19:26:03.449Z,0.60
2022-07-31T19:28:05.779Z,0.60
2022-07-31T19:30:14.431Z,0.80
2022-07-31T19:32:15.958Z,0.87
2022-07-31T19:34:18.506Z,0.98
2022-07-31T19:36:21.681Z,0.90
2022-07-31T19:38:23.160Z,0.90
2022-07-31T19:40:25.087Z,1.00
2022-07-31T19:42:26.722Z,0.70
2022-07-31T19:44:28.217Z,0.63
2022-07-31T19:46:30.588Z,0.82
2022-07-31T19:48:32.059Z,0.85
2022-07-31T19:50:33.597Z,0.75
2022-07-31T19:52:35.127Z,0.88
2022-07-31T19:54:37.109Z,0.70
2022-07-31T19:56:38.538Z,0.65
2022-07-31T19:58:41.869Z,1.15
2022-07-31T20:00:44.003Z,0.80
2022-07-31T20:02:45.803Z,0.60
2022-07-31T20:04:47.375Z,0.80
2022-07-31T20:06:49.050Z,0.70
2022-07-31T20:08:50.639Z,0.90
2022-07-31T20:10:52.221Z,1.05
2022-07-31T20:12:53.685Z,1.00
2022-07-31T20:14:57.947Z,0.80
2022-07-31T20:16:59.935Z,1.20
2022-07-31T20:19:01.540Z,1.20
2022-07-31T20:21:06.912Z,0.90
2022-07-31T20:23:08.602Z,0.70
2022-07-31T20:25:19.585Z,1.05
2022-07-31T20:27:21.706Z,0.77
2022-07-31T20:29:23.354Z,0.93
2022-07-31T20:31:24.846Z,0.70
2022-07-31T20:33:26.537Z,0.90
2022-07-31T20:35:29.054Z,0.57
2022-07-31T20:37:49.049Z,0.73
2022-07-31T20:39:50.675Z,0.90
2022-07-31T20:41:52.358Z,0.95
2022-07-31T20:43:54.580Z,1.10
2022-07-31T20:46:00.264Z,0.80
2022-07-31T20:48:02.008Z,0.60
2022-07-31T20:50:03.872Z,0.93
2022-07-31T20:52:05.659Z,0.93
2022-07-31T20:54:07.378Z,1.00
2022-07-31T20:56:09.142Z,0.70
2022-07-31T20:58:10.971Z,1.17
2022-07-31T21:00:13.133Z,0.80
2022-07-31T21:02:14.654Z,0.90
2022-07-31T21:04:16.346Z,0.60
2022-07-31T21:06:19.234Z,0.85
2022-07-31T21:08:21.506Z,0.70
2022-07-31T21:10:25.146Z,0.80
2022-07-31T21:12:29.626Z,0.70
2022-07-31T21:14:31.286Z,0.60
2022-07-31T21:16:32.836Z,0.95
2022-07-31T21:18:36.369Z,1.02
2022-07-31T21:20:50.951Z,0.70
2022-07-31T21:22:55.425Z,0.85
2022-07-31T21:25:01.389Z,0.90
2022-07-31T21:27:03.166Z,1.05
2022-07-31T21:29:11.620Z,1.10
2022-07-31T21:31:21.206Z,0.95
2022-07-31T21:33:33.516Z,1.15
2022-07-31T21:35:42.990Z,0.80
2022-07-31T21:37:54.616Z,1.15
2022-07-31T21:40:06.874Z,1.45
2022-07-31T21:42:17.429Z,1.10
2022-07-31T21:44:26.381Z,1.05
2022-07-31T21:46:38.596Z,1.50
2022-07-31T21:48:48.452Z,1.13
2022-07-31T21:50:51.772Z,1.30
2022-07-31T21:52:53.501Z,1.33
2022-07-31T21:54:54.975Z,1.70
2022-07-31T21:56:56.442Z,1.35
2022-07-31T21:58:57.920Z,1.40
2022-07-31T22:00:59.416Z,1.45
2022-07-31T22:03:02.958Z,1.00
2022-07-31T22:05:23.068Z,0.95
2022-07-31T22:07:33.755Z,1.40
2022-07-31T22:09:35.225Z,1.02
2022-07-31T22:11:36.829Z,1.13
2022-07-31T22:13:38.367Z,1.10
2022-07-31T22:15:59.090Z,1.00
2022-07-31T22:18:02.224Z,1.17
2022-07-31T22:20:04.910Z,1.50
2022-07-31T22:22:06.911Z,1.23
2022-07-31T22:24:09.127Z,1.05
2022-07-31T22:26:10.825Z,1.10
2022-07-31T22:28:12.387Z,1.30
2022-07-31T22:30:14.265Z,1.15
2022-07-31T22:32:15.774Z,1.60
2022-07-31T22:34:17.294Z,1.65
2022-07-31T22:36:38.779Z,1.42
2022-07-31T22:38:42.798Z,1.70
2022-07-31T22:42:57.446Z,1.52
2022-07-31T22:44:59.802Z,1.30
2022-07-31T22:47:01.755Z,1.70
2022-07-31T22:49:05.022Z,1.42
2022-07-31T22:51:06.601Z,1.67
2022-07-31T22:53:08.290Z,1.10
2022-07-31T22:55:10.853Z,1.40
2022-07-31T22:57:13.306Z,1.33
2022-07-31T22:59:14.852Z,1.20
2022-07-31T23:01:16.366Z,1.85
2022-07-31T23:03:17.992Z,1.67
2022-07-31T23:05:19.650Z,1.50
2022-07-31T23:07:21.126Z,1.38
2022-07-31T23:09:22.746Z,1.23
2022-07-31T23:11:24.724Z,1.60
2022-07-31T23:13:26.348Z,1.67
2022-07-31T23:15:27.970Z,1.42
2022-07-31T23:17:29.610Z,2.13
2022-07-31T23:19:31.334Z,1.70
2022-07-31T23:21:33.405Z,1.60
2022-07-31T23:23:34.880Z,1.48
2022-07-31T23:25:36.340Z,2.10
2022-07-31T23:27:37.846Z,1.95
2022-07-31T23:29:41.704Z,2.42
2022-07-31T23:33:45.644Z,1.88
2022-07-31T23:35:47.912Z,1.50
2022-07-31T23:37:49.406Z,2.05
2022-07-31T23:39:50.834Z,2.10
2022-07-31T23:42:11.018Z,1.30
2022-07-31T23:44:12.503Z,1.50
2022-07-31T23:46:20.069Z,1.65
2022-07-31T23:48:29.941Z,1.50
2022-07-31T23:50:31.579Z,1.63
2022-07-31T23:52:33.092Z,1.30
2022-07-31T23:54:34.575Z,1.33
2022-07-31T23:56:36.198Z,2.13
2022-07-31T23:58:37.688Z,1.63
